sensor_id;sensor_type;location;lat;lon;timestamp;temperature;humidity
35277;DHT22;21401;50.878;8.050;2023-03-01T00:00:20;-2.90;99.90
35277;DHT22;21401;50.878;8.050;2023-03-01T00:02:46;-2.90;99.90
35277;DHT22;21401;50.878;8.050;2023-03-01T00:05:11;-3.00;99.90
35277;DHT22;21401;50.878;8.050;2023-03-01T00:07:37;-3.10;99.90
35277;DHT22;21401;50.878;8.050;2023-03-01T00:10:03;-2.90;99.90
35277;DHT22;21401;50.878;8.050;2023-03-01T00:12:29;-2.90;99.90
35277;DHT22;21401;50.878;8.050;2023-03-01T00:14:56;-2.90;99.90
35277;DHT22;21401;50.878;8.050;2023-03-01T00:17:22;-2.90;99.90
35277;DHT22;21401;50.878;8.050;2023-03-01T00:19:47;-2.90;99.90
35277;DHT22;21401;50.878;8.050;2023-03-01T00:22:13;-2.80;99.90
35277;DHT22;21401;50.878;8.050;2023-03-01T00:24:38;-2.80;99.90
35277;DHT22;21401;50.878;8.050;2023-03-01T00:27:04;-2.80;99.90
35277;DHT22;21401;50.878;8.050;2023-03-01T00:29:30;-2.80;99.90
35277;DHT22;21401;50.878;8.050;2023-03-01T00:31:56;-2.60;99.90
35277;DHT22;21401;50.878;8.050;2023-03-01T00:34:21;-2.70;99.90
35277;DHT22;21401;50.878;8.050;2023-03-01T00:36:49;-2.70;99.90
35277;DHT22;21401;50.878;8.050;2023-03-01T00:39:15;-2.60;99.90
35277;DHT22;21401;50.878;8.050;2023-03-01T00:41:41;-2.60;99.90
35277;DHT22;21401;50.878;8.050;2023-03-01T00:44:07;-2.60;99.90
35277;DHT22;21401;50.878;8.050;2023-03-01T00:46:33;-2.70;99.90
35277;DHT22;21401;50.878;8.050;2023-03-01T00:48:59;-2.80;99.90
35277;DHT22;21401;50.878;8.050;2023-03-01T00:51:28;-3.00;99.90
35277;DHT22;21401;50.878;8.050;2023-03-01T00:53:55;-3.00;99.90
35277;DHT22;21401;50.878;8.050;2023-03-01T00:56:24;-3.00;99.90
35277;DHT22;21401;50.878;8.050;2023-03-01T00:58:50;-3.00;99.90
35277;DHT22;21401;50.878;8.050;2023-03-01T01:01:23;-2.90;99.90
35277;DHT22;21401;50.878;8.050;2023-03-01T01:03:53;-2.80;99.90
35277;DHT22;21401;50.878;8.050;2023-03-01T01:08:49;-2.80;99.90
35277;DHT22;21401;50.878;8.050;2023-03-01T01:11:16;-2.90;99.90
35277;DHT22;21401;50.878;8.050;2023-03-01T01:13:44;-2.80;99.90
35277;DHT22;21401;50.878;8.050;2023-03-01T01:16:10;-2.90;99.90
35277;DHT22;21401;50.878;8.050;2023-03-01T01:18:36;-2.90;99.90
35277;DHT22;21401;50.878;8.050;2023-03-01T01:21:14;-2.90;99.90
35277;DHT22;21401;50.878;8.050;2023-03-01T01:23:42;-2.90;99.90
35277;DHT22;21401;50.878;8.050;2023-03-01T01:26:11;-2.80;99.90
35277;DHT22;21401;50.878;8.050;2023-03-01T01:28:36;-2.80;99.90
35277;DHT22;21401;50.878;8.050;2023-03-01T01:31:03;-2.80;99.90
35277;DHT22;21401;50.878;8.050;2023-03-01T01:33:29;-2.90;99.90
35277;DHT22;21401;50.878;8.050;2023-03-01T01:35:55;-3.00;99.90
35277;DHT22;21401;50.878;8.050;2023-03-01T01:38:20;-2.90;99.90
35277;DHT22;21401;50.878;8.050;2023-03-01T01:40:49;-2.90;99.90
35277;DHT22;21401;50.878;8.050;2023-03-01T01:43:26;-2.80;99.90
35277;DHT22;21401;50.878;8.050;2023-03-01T01:45:56;-2.90;99.90
35277;DHT22;21401;50.878;8.050;2023-03-01T01:48:24;-2.80;99.90
35277;DHT22;21401;50.878;8.050;2023-03-01T01:51:06;-2.80;99.90
35277;DHT22;21401;50.878;8.050;2023-03-01T01:53:32;-2.80;99.90
35277;DHT22;21401;50.878;8.050;2023-03-01T01:56:01;-2.90;99.90
35277;DHT22;21401;50.878;8.050;2023-03-01T01:58:29;-3.00;99.90
35277;DHT22;21401;50.878;8.050;2023-03-01T02:00:55;-3.10;99.90
35277;DHT22;21401;50.878;8.050;2023-03-01T02:03:27;-3.00;99.90
35277;DHT22;21401;50.878;8.050;2023-03-01T02:05:59;-3.10;99.90
35277;DHT22;21401;50.878;8.050;2023-03-01T02:08:31;-3.10;99.90
35277;DHT22;21401;50.878;8.050;2023-03-01T02:10:59;-3.10;99.90
35277;DHT22;21401;50.878;8.050;2023-03-01T02:13:26;-3.10;99.90
35277;DHT22;21401;50.878;8.050;2023-03-01T02:15:52;-3.10;99.90
35277;DHT22;21401;50.878;8.050;2023-03-01T02:18:20;-3.00;99.90
35277;DHT22;21401;50.878;8.050;2023-03-01T02:23:31;-3.10;99.90
35277;DHT22;21401;50.878;8.050;2023-03-01T02:28:24;-3.20;99.90
35277;DHT22;21401;50.878;8.050;2023-03-01T02:30:50;-3.20;99.90
35277;DHT22;21401;50.878;8.050;2023-03-01T02:33:37;-3.30;99.90
35277;DHT22;21401;50.878;8.050;2023-03-01T02:36:06;-3.20;99.90
35277;DHT22;21401;50.878;8.050;2023-03-01T02:38:33;-3.30;99.90
35277;DHT22;21401;50.878;8.050;2023-03-01T02:41:00;-3.30;99.90
35277;DHT22;21401;50.878;8.050;2023-03-01T02:43:30;-3.00;99.90
35277;DHT22;21401;50.878;8.050;2023-03-01T02:46:14;-2.80;99.90
35277;DHT22;21401;50.878;8.050;2023-03-01T02:48:42;-3.10;99.90
35277;DHT22;21401;50.878;8.050;2023-03-01T02:56:19;-3.10;99.90
35277;DHT22;21401;50.878;8.050;2023-03-01T02:58:45;-3.00;99.90
35277;DHT22;21401;50.878;8.050;2023-03-01T03:01:13;-3.10;99.90
35277;DHT22;21401;50.878;8.050;2023-03-01T03:03:41;-3.10;99.90
35277;DHT22;21401;50.878;8.050;2023-03-01T03:06:07;-3.10;99.90
35277;DHT22;21401;50.878;8.050;2023-03-01T03:08:33;-3.00;99.90
35277;DHT22;21401;50.878;8.050;2023-03-01T03:10:59;-3.10;99.90
35277;DHT22;21401;50.878;8.050;2023-03-01T03:13:24;-3.10;99.90
35277;DHT22;21401;50.878;8.050;2023-03-01T03:15:54;-3.20;99.90
35277;DHT22;21401;50.878;8.050;2023-03-01T03:18:21;-3.10;99.90
35277;DHT22;21401;50.878;8.050;2023-03-01T03:20:47;-3.00;99.90
35277;DHT22;21401;50.878;8.050;2023-03-01T03:23:18;-3.10;99.90
35277;DHT22;21401;50.878;8.050;2023-03-01T03:25:43;-3.00;99.90
35277;DHT22;21401;50.878;8.050;2023-03-01T03:28:09;-3.00;99.90
35277;DHT22;21401;50.878;8.050;2023-03-01T03:30:37;-3.20;99.90
35277;DHT22;21401;50.878;8.050;2023-03-01T03:33:05;-3.20;99.90
35277;DHT22;21401;50.878;8.050;2023-03-01T03:35:40;-3.30;99.90
35277;DHT22;21401;50.878;8.050;2023-03-01T03:38:09;-3.30;99.90
35277;DHT22;21401;50.878;8.050;2023-03-01T03:40:42;-3.30;99.90
35277;DHT22;21401;50.878;8.050;2023-03-01T03:43:10;-3.30;99.90
35277;DHT22;21401;50.878;8.050;2023-03-01T03:45:37;-3.30;99.90
35277;DHT22;21401;50.878;8.050;2023-03-01T03:48:06;-3.30;99.90
35277;DHT22;21401;50.878;8.050;2023-03-01T03:50:32;-3.30;99.90
35277;DHT22;21401;50.878;8.050;2023-03-01T03:53:00;-3.30;99.90
35277;DHT22;21401;50.878;8.050;2023-03-01T03:55:26;-3.30;99.90
35277;DHT22;21401;50.878;8.050;2023-03-01T03:57:57;-3.30;99.90
35277;DHT22;21401;50.878;8.050;2023-03-01T04:00:23;-3.40;99.90
35277;DHT22;21401;50.878;8.050;2023-03-01T04:02:50;-3.40;99.90
35277;DHT22;21401;50.878;8.050;2023-03-01T04:05:18;-3.40;99.90
35277;DHT22;21401;50.878;8.050;2023-03-01T04:07:45;-3.50;99.90
35277;DHT22;21401;50.878;8.050;2023-03-01T04:10:14;-3.60;99.90
35277;DHT22;21401;50.878;8.050;2023-03-01T04:12:41;-3.60;99.90
35277;DHT22;21401;50.878;8.050;2023-03-01T04:15:09;-3.60;99.90
35277;DHT22;21401;50.878;8.050;2023-03-01T04:17:44;-3.70;99.90
35277;DHT22;21401;50.878;8.050;2023-03-01T04:20:16;-3.60;99.90
35277;DHT22;21401;50.878;8.050;2023-03-01T04:22:43;-3.50;99.90
35277;DHT22;21401;50.878;8.050;2023-03-01T04:25:11;-3.60;99.90
35277;DHT22;21401;50.878;8.050;2023-03-01T04:27:40;-3.70;99.90
35277;DHT22;21401;50.878;8.050;2023-03-01T04:30:07;-3.70;99.90
35277;DHT22;21401;50.878;8.050;2023-03-01T04:32:33;-3.70;99.90
35277;DHT22;21401;50.878;8.050;2023-03-01T04:34:59;-3.70;99.90
35277;DHT22;21401;50.878;8.050;2023-03-01T04:37:25;-3.70;99.90
35277;DHT22;21401;50.878;8.050;2023-03-01T04:39:51;-3.80;99.90
35277;DHT22;21401;50.878;8.050;2023-03-01T04:42:17;-3.80;99.90
35277;DHT22;21401;50.878;8.050;2023-03-01T04:44:43;-3.60;99.90
35277;DHT22;21401;50.878;8.050;2023-03-01T04:47:09;-3.70;99.90
35277;DHT22;21401;50.878;8.050;2023-03-01T04:49:35;-3.80;99.90
35277;DHT22;21401;50.878;8.050;2023-03-01T04:52:00;-3.80;99.90
35277;DHT22;21401;50.878;8.050;2023-03-01T04:54:31;-3.80;99.90
35277;DHT22;21401;50.878;8.050;2023-03-01T04:56:58;-3.80;99.90
35277;DHT22;21401;50.878;8.050;2023-03-01T04:59:24;-3.80;99.90
35277;DHT22;21401;50.878;8.050;2023-03-01T05:01:50;-3.70;99.90
35277;DHT22;21401;50.878;8.050;2023-03-01T05:04:16;-3.70;99.90
35277;DHT22;21401;50.878;8.050;2023-03-01T05:06:42;-3.80;99.90
35277;DHT22;21401;50.878;8.050;2023-03-01T05:09:08;-3.80;99.90
35277;DHT22;21401;50.878;8.050;2023-03-01T05:11:34;-3.90;99.90
35277;DHT22;21401;50.878;8.050;2023-03-01T05:14:05;-3.90;99.90
35277;DHT22;21401;50.878;8.050;2023-03-01T05:16:32;-3.90;99.90
35277;DHT22;21401;50.878;8.050;2023-03-01T05:18:58;-3.90;99.90
35277;DHT22;21401;50.878;8.050;2023-03-01T05:21:24;-4.00;99.90
35277;DHT22;21401;50.878;8.050;2023-03-01T05:23:50;-4.00;99.90
35277;DHT22;21401;50.878;8.050;2023-03-01T05:26:18;-4.10;99.90
35277;DHT22;21401;50.878;8.050;2023-03-01T05:28:44;-4.10;99.90
35277;DHT22;21401;50.878;8.050;2023-03-01T05:31:10;-4.00;99.90
35277;DHT22;21401;50.878;8.050;2023-03-01T05:33:40;-4.00;99.90
35277;DHT22;21401;50.878;8.050;2023-03-01T05:36:11;-4.00;99.90
35277;DHT22;21401;50.878;8.050;2023-03-01T05:38:36;-4.00;99.90
35277;DHT22;21401;50.878;8.050;2023-03-01T05:41:02;-4.00;99.90
35277;DHT22;21401;50.878;8.050;2023-03-01T05:43:31;-3.90;99.90
35277;DHT22;21401;50.878;8.050;2023-03-01T05:45:59;-3.70;99.90
35277;DHT22;21401;50.878;8.050;2023-03-01T05:48:25;-3.70;99.90
35277;DHT22;21401;50.878;8.050;2023-03-01T05:50:51;-3.70;99.90
35277;DHT22;21401;50.878;8.050;2023-03-01T05:53:19;-3.80;99.90
35277;DHT22;21401;50.878;8.050;2023-03-01T05:55:48;-3.90;99.90
35277;DHT22;21401;50.878;8.050;2023-03-01T05:58:17;-3.90;99.90
35277;DHT22;21401;50.878;8.050;2023-03-01T06:00:45;-3.90;99.90
35277;DHT22;21401;50.878;8.050;2023-03-01T06:03:12;-4.00;99.90
35277;DHT22;21401;50.878;8.050;2023-03-01T06:05:40;-4.00;99.90
35277;DHT22;21401;50.878;8.050;2023-03-01T06:08:06;-3.90;99.90
35277;DHT22;21401;50.878;8.050;2023-03-01T06:10:31;-3.80;99.90
35277;DHT22;21401;50.878;8.050;2023-03-01T06:12:59;-3.70;99.90
35277;DHT22;21401;50.878;8.050;2023-03-01T06:15:25;-3.60;99.90
35277;DHT22;21401;50.878;8.050;2023-03-01T06:17:52;-3.40;99.90
35277;DHT22;21401;50.878;8.050;2023-03-01T06:20:22;-3.40;99.90
35277;DHT22;21401;50.878;8.050;2023-03-01T06:22:48;-3.30;99.90
35277;DHT22;21401;50.878;8.050;2023-03-01T06:25:18;-3.50;99.90
35277;DHT22;21401;50.878;8.050;2023-03-01T06:27:44;-3.70;99.90
35277;DHT22;21401;50.878;8.050;2023-03-01T06:30:12;-3.70;99.90
35277;DHT22;21401;50.878;8.050;2023-03-01T06:32:39;-3.70;99.90
35277;DHT22;21401;50.878;8.050;2023-03-01T06:35:08;-3.70;99.90
35277;DHT22;21401;50.878;8.050;2023-03-01T06:37:33;-3.70;99.90
35277;DHT22;21401;50.878;8.050;2023-03-01T06:40:01;-3.70;99.90
35277;DHT22;21401;50.878;8.050;2023-03-01T06:42:30;-3.70;99.90
35277;DHT22;21401;50.878;8.050;2023-03-01T06:44:55;-3.30;99.90
35277;DHT22;21401;50.878;8.050;2023-03-01T06:47:21;-3.00;99.90
35277;DHT22;21401;50.878;8.050;2023-03-01T06:49:47;-2.70;99.90
35277;DHT22;21401;50.878;8.050;2023-03-01T06:52:13;-2.40;99.90
35277;DHT22;21401;50.878;8.050;2023-03-01T06:54:38;-2.70;99.90
35277;DHT22;21401;50.878;8.050;2023-03-01T06:57:04;-3.00;99.90
35277;DHT22;21401;50.878;8.050;2023-03-01T06:59:29;-3.20;99.90
35277;DHT22;21401;50.878;8.050;2023-03-01T07:01:55;-3.10;99.90
35277;DHT22;21401;50.878;8.050;2023-03-01T07:04:21;-2.90;99.90
35277;DHT22;21401;50.878;8.050;2023-03-01T07:06:46;-2.60;99.90
35277;DHT22;21401;50.878;8.050;2023-03-01T07:09:19;-1.90;99.90
35277;DHT22;21401;50.878;8.050;2023-03-01T07:11:47;-1.70;99.90
35277;DHT22;21401;50.878;8.050;2023-03-01T07:14:13;-1.50;99.90
35277;DHT22;21401;50.878;8.050;2023-03-01T07:16:38;-1.20;99.90
35277;DHT22;21401;50.878;8.050;2023-03-01T07:19:04;-1.10;99.90
35277;DHT22;21401;50.878;8.050;2023-03-01T07:21:31;-0.80;99.90
35277;DHT22;21401;50.878;8.050;2023-03-01T07:23:56;-0.60;99.90
35277;DHT22;21401;50.878;8.050;2023-03-01T07:26:22;-0.60;99.90
35277;DHT22;21401;50.878;8.050;2023-03-01T07:28:48;-0.40;99.90
35277;DHT22;21401;50.878;8.050;2023-03-01T07:31:13;-0.30;99.90
35277;DHT22;21401;50.878;8.050;2023-03-01T07:33:39;-0.40;99.90
35277;DHT22;21401;50.878;8.050;2023-03-01T07:36:05;-0.20;99.90
35277;DHT22;21401;50.878;8.050;2023-03-01T07:38:31;-0.10;99.90
35277;DHT22;21401;50.878;8.050;2023-03-01T07:41:01;-0.10;99.90
35277;DHT22;21401;50.878;8.050;2023-03-01T07:43:28;0.00;99.90
35277;DHT22;21401;50.878;8.050;2023-03-01T07:45:54;0.00;99.90
35277;DHT22;21401;50.878;8.050;2023-03-01T07:48:20;0.30;99.90
35277;DHT22;21401;50.878;8.050;2023-03-01T07:50:45;0.30;99.90
35277;DHT22;21401;50.878;8.050;2023-03-01T07:53:11;0.40;99.90
35277;DHT22;21401;50.878;8.050;2023-03-01T07:55:37;0.60;99.90
35277;DHT22;21401;50.878;8.050;2023-03-01T07:58:03;0.70;99.90
35277;DHT22;21401;50.878;8.050;2023-03-01T08:00:29;0.80;99.90
35277;DHT22;21401;50.878;8.050;2023-03-01T08:02:54;1.00;99.90
35277;DHT22;21401;50.878;8.050;2023-03-01T08:05:23;1.20;99.90
35277;DHT22;21401;50.878;8.050;2023-03-01T08:07:49;1.20;99.90
35277;DHT22;21401;50.878;8.050;2023-03-01T08:10:14;1.20;99.90
35277;DHT22;21401;50.878;8.050;2023-03-01T08:12:40;1.30;99.90
35277;DHT22;21401;50.878;8.050;2023-03-01T08:15:06;1.30;99.90
35277;DHT22;21401;50.878;8.050;2023-03-01T08:17:32;1.30;99.90
35277;DHT22;21401;50.878;8.050;2023-03-01T08:19:58;1.40;99.90
35277;DHT22;21401;50.878;8.050;2023-03-01T08:22:23;1.40;99.90
35277;DHT22;21401;50.878;8.050;2023-03-01T08:24:49;1.50;99.90
35277;DHT22;21401;50.878;8.050;2023-03-01T08:27:16;1.50;99.90
35277;DHT22;21401;50.878;8.050;2023-03-01T08:29:42;1.60;99.90
35277;DHT22;21401;50.878;8.050;2023-03-01T08:32:07;1.70;99.90
35277;DHT22;21401;50.878;8.050;2023-03-01T08:34:33;1.90;99.90
35277;DHT22;21401;50.878;8.050;2023-03-01T08:37:01;2.00;99.90
35277;DHT22;21401;50.878;8.050;2023-03-01T08:39:27;2.10;99.90
35277;DHT22;21401;50.878;8.050;2023-03-01T08:41:53;2.10;99.90
35277;DHT22;21401;50.878;8.050;2023-03-01T08:44:19;2.00;99.90
35277;DHT22;21401;50.878;8.050;2023-03-01T08:46:46;2.20;99.90
35277;DHT22;21401;50.878;8.050;2023-03-01T08:49:21;2.20;99.90
35277;DHT22;21401;50.878;8.050;2023-03-01T08:51:47;2.30;99.90
35277;DHT22;21401;50.878;8.050;2023-03-01T08:54:18;2.00;99.90
35277;DHT22;21401;50.878;8.050;2023-03-01T08:56:44;2.10;99.90
35277;DHT22;21401;50.878;8.050;2023-03-01T08:59:11;2.10;99.90
35277;DHT22;21401;50.878;8.050;2023-03-01T09:01:38;2.10;99.90
35277;DHT22;21401;50.878;8.050;2023-03-01T09:04:04;2.00;99.90
35277;DHT22;21401;50.878;8.050;2023-03-01T09:06:31;2.30;99.90
35277;DHT22;21401;50.878;8.050;2023-03-01T09:08:58;2.30;99.90
35277;DHT22;21401;50.878;8.050;2023-03-01T09:11:24;2.20;99.90
35277;DHT22;21401;50.878;8.050;2023-03-01T09:13:50;2.30;99.90
35277;DHT22;21401;50.878;8.050;2023-03-01T09:16:18;2.40;99.90
35277;DHT22;21401;50.878;8.050;2023-03-01T09:18:45;2.40;99.90
35277;DHT22;21401;50.878;8.050;2023-03-01T09:21:15;2.50;99.90
35277;DHT22;21401;50.878;8.050;2023-03-01T09:23:46;2.50;99.90
35277;DHT22;21401;50.878;8.050;2023-03-01T09:26:18;2.70;99.90
35277;DHT22;21401;50.878;8.050;2023-03-01T09:28:45;2.80;99.90
35277;DHT22;21401;50.878;8.050;2023-03-01T09:31:12;2.80;99.90
35277;DHT22;21401;50.878;8.050;2023-03-01T09:33:38;2.70;99.90
35277;DHT22;21401;50.878;8.050;2023-03-01T09:36:07;2.90;99.90
35277;DHT22;21401;50.878;8.050;2023-03-01T09:38:33;3.10;99.90
35277;DHT22;21401;50.878;8.050;2023-03-01T09:41:00;3.00;99.90
35277;DHT22;21401;50.878;8.050;2023-03-01T09:46:04;3.20;99.90
35277;DHT22;21401;50.878;8.050;2023-03-01T09:48:38;3.20;99.90
35277;DHT22;21401;50.878;8.050;2023-03-01T09:51:12;3.30;99.90
35277;DHT22;21401;50.878;8.050;2023-03-01T09:53:40;3.30;99.90
35277;DHT22;21401;50.878;8.050;2023-03-01T09:56:13;3.40;99.90
35277;DHT22;21401;50.878;8.050;2023-03-01T09:59:24;3.30;99.90
35277;DHT22;21401;50.878;8.050;2023-03-01T10:10:28;3.80;99.90
35277;DHT22;21401;50.878;8.050;2023-03-01T10:12:56;3.80;99.90
35277;DHT22;21401;50.878;8.050;2023-03-01T10:15:34;4.00;99.90
35277;DHT22;21401;50.878;8.050;2023-03-01T10:18:03;4.00;99.90
35277;DHT22;21401;50.878;8.050;2023-03-01T10:23:20;4.30;99.90
35277;DHT22;21401;50.878;8.050;2023-03-01T10:26:10;4.20;99.90
35277;DHT22;21401;50.878;8.050;2023-03-01T10:31:25;4.70;99.90
35277;DHT22;21401;50.878;8.050;2023-03-01T10:33:53;5.00;99.90
35277;DHT22;21401;50.878;8.050;2023-03-01T10:36:22;4.80;99.80
35277;DHT22;21401;50.878;8.050;2023-03-01T10:38:53;4.80;99.90
35277;DHT22;21401;50.878;8.050;2023-03-01T10:41:22;4.80;99.90
35277;DHT22;21401;50.878;8.050;2023-03-01T10:43:58;5.00;99.40
35277;DHT22;21401;50.878;8.050;2023-03-01T10:46:37;5.10;99.20
35277;DHT22;21401;50.878;8.050;2023-03-01T10:51:44;5.20;98.90
35277;DHT22;21401;50.878;8.050;2023-03-01T10:54:30;5.40;97.90
35277;DHT22;21401;50.878;8.050;2023-03-01T10:56:59;5.20;97.90
35277;DHT22;21401;50.878;8.050;2023-03-01T10:59:31;5.10;97.60
35277;DHT22;21401;50.878;8.050;2023-03-01T11:04:35;5.40;98.20
35277;DHT22;21401;50.878;8.050;2023-03-01T11:07:02;5.70;97.40
35277;DHT22;21401;50.878;8.050;2023-03-01T11:09:32;5.40;97.60
35277;DHT22;21401;50.878;8.050;2023-03-01T11:12:04;5.30;97.80
35277;DHT22;21401;50.878;8.050;2023-03-01T11:14:36;5.50;98.00
35277;DHT22;21401;50.878;8.050;2023-03-01T11:17:18;5.80;97.40
35277;DHT22;21401;50.878;8.050;2023-03-01T11:25:19;6.00;98.00
35277;DHT22;21401;50.878;8.050;2023-03-01T11:27:47;6.00;96.70
35277;DHT22;21401;50.878;8.050;2023-03-01T11:30:38;5.80;97.30
35277;DHT22;21401;50.878;8.050;2023-03-01T11:35:57;5.80;96.30
35277;DHT22;21401;50.878;8.050;2023-03-01T11:38:26;5.70;97.00
35277;DHT22;21401;50.878;8.050;2023-03-01T11:43:56;5.60;95.60
35277;DHT22;21401;50.878;8.050;2023-03-01T11:49:26;6.00;96.50
35277;DHT22;21401;50.878;8.050;2023-03-01T11:52:17;6.10;96.40
35277;DHT22;21401;50.878;8.050;2023-03-01T12:03:25;6.30;96.10
35277;DHT22;21401;50.878;8.050;2023-03-01T12:35:14;7.00;93.30
35277;DHT22;21401;50.878;8.050;2023-03-01T12:40:58;7.10;92.60
35277;DHT22;21401;50.878;8.050;2023-03-01T12:51:59;6.70;93.20
35277;DHT22;21401;50.878;8.050;2023-03-01T12:54:31;7.10;91.50
35277;DHT22;21401;50.878;8.050;2023-03-01T12:57:08;7.30;91.80
35277;DHT22;21401;50.878;8.050;2023-03-01T13:00:10;7.30;90.10
35277;DHT22;21401;50.878;8.050;2023-03-01T13:03:09;7.30;91.20
35277;DHT22;21401;50.878;8.050;2023-03-01T13:06:19;7.60;90.80
35277;DHT22;21401;50.878;8.050;2023-03-01T13:09:07;7.40;91.00
35277;DHT22;21401;50.878;8.050;2023-03-01T13:11:35;7.60;90.20
35277;DHT22;21401;50.878;8.050;2023-03-01T13:16:46;7.30;90.00
35277;DHT22;21401;50.878;8.050;2023-03-01T13:21:44;7.90;90.50
35277;DHT22;21401;50.878;8.050;2023-03-01T13:24:43;7.60;90.80
35277;DHT22;21401;50.878;8.050;2023-03-01T13:27:22;7.60;91.20
35277;DHT22;21401;50.878;8.050;2023-03-01T13:29:59;7.50;90.80
35277;DHT22;21401;50.878;8.050;2023-03-01T13:32:33;7.70;90.90
35277;DHT22;21401;50.878;8.050;2023-03-01T13:37:44;7.80;90.90
35277;DHT22;21401;50.878;8.050;2023-03-01T13:42:54;7.70;89.40
35277;DHT22;21401;50.878;8.050;2023-03-01T13:45:32;7.80;90.80
35277;DHT22;21401;50.878;8.050;2023-03-01T13:48:11;7.80;90.70
35277;DHT22;21401;50.878;8.050;2023-03-01T13:50:53;7.90;88.60
35277;DHT22;21401;50.878;8.050;2023-03-01T13:53:23;8.00;90.80
35277;DHT22;21401;50.878;8.050;2023-03-01T13:56:00;7.80;90.90
35277;DHT22;21401;50.878;8.050;2023-03-01T13:58:30;7.80;91.80
35277;DHT22;21401;50.878;8.050;2023-03-01T14:00:57;7.70;92.00
35277;DHT22;21401;50.878;8.050;2023-03-01T14:03:23;7.90;92.40
35277;DHT22;21401;50.878;8.050;2023-03-01T14:08:26;7.90;92.00
35277;DHT22;21401;50.878;8.050;2023-03-01T14:14:02;7.80;91.80
35277;DHT22;21401;50.878;8.050;2023-03-01T14:21:41;7.50;93.80
35277;DHT22;21401;50.878;8.050;2023-03-01T14:24:20;7.80;93.50
35277;DHT22;21401;50.878;8.050;2023-03-01T14:26:47;7.50;93.70
35277;DHT22;21401;50.878;8.050;2023-03-01T14:29:45;7.40;93.20
35277;DHT22;21401;50.878;8.050;2023-03-01T14:32:17;7.40;92.60
35277;DHT22;21401;50.878;8.050;2023-03-01T14:34:46;7.50;92.60
35277;DHT22;21401;50.878;8.050;2023-03-01T14:37:32;7.50;92.80
35277;DHT22;21401;50.878;8.050;2023-03-01T14:40:00;7.20;93.00
35277;DHT22;21401;50.878;8.050;2023-03-01T14:42:34;6.90;93.40
35277;DHT22;21401;50.878;8.050;2023-03-01T14:45:02;7.00;93.30
35277;DHT22;21401;50.878;8.050;2023-03-01T14:47:30;7.10;93.30
35277;DHT22;21401;50.878;8.050;2023-03-01T14:50:00;7.10;92.80
35277;DHT22;21401;50.878;8.050;2023-03-01T14:52:42;7.10;93.00
35277;DHT22;21401;50.878;8.050;2023-03-01T14:55:21;7.10;92.80
35277;DHT22;21401;50.878;8.050;2023-03-01T14:57:49;6.90;92.50
35277;DHT22;21401;50.878;8.050;2023-03-01T15:00:24;6.90;93.10
35277;DHT22;21401;50.878;8.050;2023-03-01T15:02:52;7.00;92.90
35277;DHT22;21401;50.878;8.050;2023-03-01T15:05:25;7.00;93.70
35277;DHT22;21401;50.878;8.050;2023-03-01T15:07:51;6.80;92.60
35277;DHT22;21401;50.878;8.050;2023-03-01T15:10:22;6.70;93.00
35277;DHT22;21401;50.878;8.050;2023-03-01T15:12:49;6.70;92.80
35277;DHT22;21401;50.878;8.050;2023-03-01T15:15:31;6.60;92.80
35277;DHT22;21401;50.878;8.050;2023-03-01T15:18:00;6.60;92.60
35277;DHT22;21401;50.878;8.050;2023-03-01T15:20:28;6.70;92.50
35277;DHT22;21401;50.878;8.050;2023-03-01T15:22:56;6.60;92.50
35277;DHT22;21401;50.878;8.050;2023-03-01T15:25:24;6.50;92.70
35277;DHT22;21401;50.878;8.050;2023-03-01T15:27:52;6.60;93.00
35277;DHT22;21401;50.878;8.050;2023-03-01T15:30:22;6.50;93.00
35277;DHT22;21401;50.878;8.050;2023-03-01T15:33:15;6.60;93.50
35277;DHT22;21401;50.878;8.050;2023-03-01T15:35:49;6.70;93.20
35277;DHT22;21401;50.878;8.050;2023-03-01T15:38:35;6.70;93.80
35277;DHT22;21401;50.878;8.050;2023-03-01T15:41:21;6.50;94.00
35277;DHT22;21401;50.878;8.050;2023-03-01T15:43:47;6.40;94.00
35277;DHT22;21401;50.878;8.050;2023-03-01T15:46:21;6.40;94.80
35277;DHT22;21401;50.878;8.050;2023-03-01T15:48:52;6.40;94.50
35277;DHT22;21401;50.878;8.050;2023-03-01T15:51:27;6.20;93.80
35277;DHT22;21401;50.878;8.050;2023-03-01T15:53:54;6.20;93.90
35277;DHT22;21401;50.878;8.050;2023-03-01T15:56:20;6.10;93.90
35277;DHT22;21401;50.878;8.050;2023-03-01T15:58:45;6.10;93.80
35277;DHT22;21401;50.878;8.050;2023-03-01T16:01:15;6.10;94.00
35277;DHT22;21401;50.878;8.050;2023-03-01T16:03:44;6.10;94.10
35277;DHT22;21401;50.878;8.050;2023-03-01T16:06:11;6.10;94.30
35277;DHT22;21401;50.878;8.050;2023-03-01T16:08:37;6.10;94.30
35277;DHT22;21401;50.878;8.050;2023-03-01T16:11:05;6.00;94.00
35277;DHT22;21401;50.878;8.050;2023-03-01T16:13:36;5.90;94.10
35277;DHT22;21401;50.878;8.050;2023-03-01T16:16:02;5.80;94.00
35277;DHT22;21401;50.878;8.050;2023-03-01T16:18:28;5.80;94.70
35277;DHT22;21401;50.878;8.050;2023-03-01T16:20:53;5.70;94.80
35277;DHT22;21401;50.878;8.050;2023-03-01T16:23:19;5.70;94.90
35277;DHT22;21401;50.878;8.050;2023-03-01T16:25:46;5.70;94.90
35277;DHT22;21401;50.878;8.050;2023-03-01T16:28:12;5.50;94.70
35277;DHT22;21401;50.878;8.050;2023-03-01T16:30:39;5.50;94.70
35277;DHT22;21401;50.878;8.050;2023-03-01T16:33:05;5.40;94.80
35277;DHT22;21401;50.878;8.050;2023-03-01T16:35:33;5.40;95.00
35277;DHT22;21401;50.878;8.050;2023-03-01T16:37:59;5.30;95.10
35277;DHT22;21401;50.878;8.050;2023-03-01T16:40:29;5.30;95.00
35277;DHT22;21401;50.878;8.050;2023-03-01T16:42:56;5.20;95.20
35277;DHT22;21401;50.878;8.050;2023-03-01T16:45:33;5.10;95.50
35277;DHT22;21401;50.878;8.050;2023-03-01T16:48:00;5.10;95.80
35277;DHT22;21401;50.878;8.050;2023-03-01T16:50:26;5.00;95.60
35277;DHT22;21401;50.878;8.050;2023-03-01T16:52:52;5.00;95.60
35277;DHT22;21401;50.878;8.050;2023-03-01T16:55:17;4.90;95.80
35277;DHT22;21401;50.878;8.050;2023-03-01T16:57:43;4.80;96.10
35277;DHT22;21401;50.878;8.050;2023-03-01T17:00:11;4.70;95.90
35277;DHT22;21401;50.878;8.050;2023-03-01T17:02:39;4.70;96.10
35277;DHT22;21401;50.878;8.050;2023-03-01T17:05:06;4.60;96.20
35277;DHT22;21401;50.878;8.050;2023-03-01T17:07:33;4.50;96.30
35277;DHT22;21401;50.878;8.050;2023-03-01T17:10:00;4.30;96.90
35277;DHT22;21401;50.878;8.050;2023-03-01T17:12:26;4.40;96.70
35277;DHT22;21401;50.878;8.050;2023-03-01T17:14:52;4.30;96.70
35277;DHT22;21401;50.878;8.050;2023-03-01T17:17:18;4.20;96.90
35277;DHT22;21401;50.878;8.050;2023-03-01T17:19:44;4.20;96.70
35277;DHT22;21401;50.878;8.050;2023-03-01T17:22:10;4.00;97.40
35277;DHT22;21401;50.878;8.050;2023-03-01T17:24:39;3.70;98.40
35277;DHT22;21401;50.878;8.050;2023-03-01T17:27:06;3.60;99.10
35277;DHT22;21401;50.878;8.050;2023-03-01T17:29:32;3.50;99.00
35277;DHT22;21401;50.878;8.050;2023-03-01T17:31:58;3.70;98.10
35277;DHT22;21401;50.878;8.050;2023-03-01T17:34:24;3.80;97.40
35277;DHT22;21401;50.878;8.050;2023-03-01T17:36:50;3.50;97.80
35277;DHT22;21401;50.878;8.050;2023-03-01T17:39:17;3.20;98.80
35277;DHT22;21401;50.878;8.050;2023-03-01T17:41:51;3.00;98.90
35277;DHT22;21401;50.878;8.050;2023-03-01T17:44:16;2.80;99.40
35277;DHT22;21401;50.878;8.050;2023-03-01T17:46:42;2.60;99.90
35277;DHT22;21401;50.878;8.050;2023-03-01T17:49:08;2.50;99.90
35277;DHT22;21401;50.878;8.050;2023-03-01T17:51:33;2.50;99.90